Time;durP1;ratioP1;P1;durP2;ratioP2;P2;SDS_P1;SDS_P2;PMS_P1;PMS_P2;Temp;Humidity;BMP_temperature;BMP_pressure;BME280_temperature;BME280_humidity;BME280_pressure;Samples;Min_cycle;Max_cycle;Signal;HPM_P1;HPM_P2
2023/08/22 00:01:55;;;;;;;7.55;3.38;;;;;;;18.29;67.03;100508.34;10444849;28;20037;-73
2023/08/22 00:06:58;;;;;;;6.63;3.67;;;;;;;18.28;66.84;100513.09;10439429;28;20052;-72
2023/08/22 00:12:00;;;;;;;4.85;3.22;;;;;;;18.25;66.97;100505.44;10443955;28;20523;-72
2023/08/22 00:17:03;;;;;;;5.63;3.38;;;;;;;18.26;67.08;100514.59;10445021;28;20045;-72
2023/08/22 00:22:06;;;;;;;5.75;3.28;;;;;;;18.27;67.00;100500.38;10439723;28;20048;-73
2023/08/22 00:27:11;;;;;;;5.72;3.90;;;;;;;18.26;67.21;100504.28;10443310;28;20060;-72
2023/08/22 00:32:15;;;;;;;5.13;3.30;;;;;;;18.23;67.35;100502.19;10424008;28;20056;-72
2023/08/22 00:37:18;;;;;;;4.75;3.33;;;;;;;18.20;67.57;100494.50;10438977;28;20111;-72
2023/08/22 00:42:20;;;;;;;7.82;3.33;;;;;;;18.19;67.57;100498.44;10437137;28;20053;-72
2023/08/22 00:47:23;;;;;;;7.47;3.35;;;;;;;18.20;67.55;100488.94;10444596;28;20511;-72
2023/08/22 00:52:25;;;;;;;6.45;3.55;;;;;;;18.11;67.70;100490.97;10433644;28;20083;-72
2023/08/22 00:57:27;;;;;;;4.13;3.17;;;;;;;18.16;67.82;100487.19;10414267;28;20404;-73
2023/08/22 01:02:30;;;;;;;5.55;3.05;;;;;;;18.09;68.05;100482.16;10441774;28;20503;-72
2023/08/22 01:07:55;;;;;;;5.97;3.28;;;;;;;18.12;67.61;100486.25;10424072;28;20041;-72
2023/08/22 01:13:00;;;;;;;6.45;3.28;;;;;;;18.15;67.62;100482.78;10423458;28;20042;-72
2023/08/22 01:18:03;;;;;;;4.43;3.08;;;;;;;18.10;67.71;100481.03;10438370;28;20056;-72
2023/08/22 01:23:06;;;;;;;5.38;3.13;;;;;;;18.17;67.73;100481.28;10421686;28;20046;-72
2023/08/22 01:28:32;;;;;;;6.00;3.60;;;;;;;18.10;68.50;100477.44;10436908;28;20053;-72
2023/08/22 01:33:38;;;;;;;3.50;2.90;;;;;;;18.16;68.62;100478.84;10435824;28;20500;-73
2023/08/22 01:38:40;;;;;;;7.18;3.53;;;;;;;18.18;69.22;100487.66;10430964;28;20042;-73
2023/08/22 01:43:43;;;;;;;5.45;3.40;;;;;;;18.03;71.53;100481.53;10440310;28;20537;-72
2023/08/22 01:48:45;;;;;;;4.68;3.22;;;;;;;17.77;73.25;100484.44;10438087;28;20040;-73
2023/08/22 01:53:48;;;;;;;4.50;3.28;;;;;;;17.60;75.65;100473.38;10436480;28;20045;-73
2023/08/22 01:58:50;;;;;;;6.22;3.22;;;;;;;17.52;76.46;100476.19;10436438;28;20056;-73
2023/08/22 02:03:53;;;;;;;6.30;3.35;;;;;;;17.48;77.59;100470.47;10458972;28;20503;-72
2023/08/22 02:08:55;;;;;;;6.78;3.70;;;;;;;17.41;78.08;100465.47;10423515;28;20053;-72
2023/08/22 02:14:03;;;;;;;7.07;3.55;;;;;;;17.34;78.11;100461.53;10454559;28;20075;-73
2023/08/22 02:19:05;;;;;;;;;;;;;;;17.09;79.45;100461.28;10452584;28;20516;-72
2023/08/22 02:24:07;;;;;;;10.13;4.45;;;;;;;16.81;83.86;100460.00;10447623;28;19928;-72
2023/08/22 02:29:16;;;;;;;7.32;4.22;;;;;;;16.56;84.76;100473.53;10452018;28;20075;-72
2023/08/22 02:34:24;;;;;;;7.03;4.60;;;;;;;16.49;87.57;100464.91;10425295;28;20048;-72
2023/08/22 02:39:27;;;;;;;7.00;4.10;;;;;;;16.20;90.20;100457.19;10453303;28;20060;-73
2023/08/22 02:44:29;;;;;;;10.15;4.40;;;;;;;16.05;91.43;100457.66;10438518;28;20136;-72
2023/08/22 02:49:31;;;;;;;9.75;4.70;;;;;;;16.00;92.74;100457.00;10451619;28;20037;-72
2023/08/22 02:54:39;;;;;;;7.95;4.25;;;;;;;15.95;94.68;100447.69;10451874;28;20037;-72
2023/08/22 02:59:41;;;;;;;;;;;;;;;15.86;94.99;100441.34;10453446;28;20053;-72
2023/08/22 03:04:44;;;;;;;4.65;3.65;;;;;;;15.79;91.91;100429.91;10444599;28;19920;-72
2023/08/22 03:09:47;;;;;;;5.53;3.70;;;;;;;15.75;91.63;100428.91;10447735;28;20041;-72
2023/08/22 03:14:50;;;;;;;8.90;4.13;;;;;;;15.76;91.80;100433.31;10445381;28;20038;-72
2023/08/22 03:19:52;;;;;;;5.47;3.33;;;;;;;15.81;92.05;100427.66;10451632;28;20045;-72
2023/08/22 03:24:55;;;;;;;6.55;4.35;;;;;;;15.80;92.39;100425.22;10438402;28;20030;-72
2023/08/22 03:30:01;;;;;;;7.43;3.73;;;;;;;15.79;91.93;100416.06;10429745;28;20040;-72
2023/08/22 03:35:08;;;;;;;6.07;3.80;;;;;;;15.87;90.95;100429.13;10438246;28;20044;-72
2023/08/22 03:40:14;;;;;;;5.82;3.83;;;;;;;15.85;92.05;100431.41;10430748;28;20049;-72
2023/08/22 03:45:23;;;;;;;7.72;4.15;;;;;;;15.81;91.62;100433.19;10445891;28;20038;-72
2023/08/22 03:50:28;;;;;;;7.70;3.80;;;;;;;15.72;90.54;100435.09;10440592;28;20241;-73
2023/08/22 03:55:30;;;;;;;9.35;4.07;;;;;;;15.73;91.33;100425.66;10444966;28;20045;-72
2023/08/22 04:00:33;;;;;;;6.45;3.97;;;;;;;15.75;92.83;100428.91;10441160;28;20049;-72
2023/08/22 04:05:35;;;;;;;6.43;3.63;;;;;;;15.70;92.61;100434.59;10431957;28;20045;-71
2023/08/22 04:10:38;;;;;;;5.95;3.67;;;;;;;15.66;92.61;100430.84;10426506;28;20381;-73
2023/08/22 04:15:40;;;;;;;5.72;3.53;;;;;;;15.73;92.71;100436.72;10440513;28;20075;-72
2023/08/22 04:20:43;;;;;;;6.57;3.83;;;;;;;15.75;92.23;100426.16;10422550;28;20046;-72
2023/08/22 04:25:45;;;;;;;8.23;4.35;;;;;;;15.71;92.88;100427.94;10433571;28;20396;-71
2023/08/22 04:30:48;;;;;;;9.07;4.70;;;;;;;15.85;93.64;100425.88;10442229;28;20440;-72
2023/08/22 04:35:51;;;;;;;7.15;4.03;;;;;;;15.88;93.14;100422.44;10444620;28;20045;-72
2023/08/22 04:40:53;;;;;;;8.07;4.40;;;;;;;15.98;92.42;100421.34;10443176;28;20045;-73
2023/08/22 04:46:05;;;;;;;7.10;4.35;;;;;;;15.95;92.89;100422.78;10437851;28;20052;-71
2023/08/22 04:51:08;;;;;;;8.63;4.65;;;;;;;15.90;91.60;100422.13;10439508;28;20539;-71
2023/08/22 04:56:10;;;;;;;7.70;4.18;;;;;;;15.85;91.77;100416.75;10439206;28;20041;-72
2023/08/22 05:01:12;;;;;;;9.45;4.85;;;;;;;15.84;91.71;100413.16;10446866;28;20405;-70
2023/08/22 05:06:15;;;;;;;8.18;4.57;;;;;;;15.94;93.05;100420.34;10425493;28;20160;-73
2023/08/22 05:11:17;;;;;;;9.88;4.65;;;;;;;16.05;91.87;100405.06;10424353;28;20448;-70
2023/08/22 05:16:20;;;;;;;8.73;5.07;;;;;;;16.23;90.63;100405.91;10432629;28;20045;-72
2023/08/22 05:21:24;;;;;;;7.25;5.10;;;;;;;16.22;90.12;100398.72;10424261;28;20084;-71
2023/08/22 05:26:26;;;;;;;7.53;4.22;;;;;;;16.19;89.19;100404.94;10435799;28;20046;-72
2023/08/22 05:31:28;;;;;;;7.43;4.90;;;;;;;16.13;89.92;100412.56;10424149;28;20059;-71
2023/08/22 05:36:31;;;;;;;8.15;4.70;;;;;;;16.14;89.83;100413.38;10439626;28;20046;-71
2023/08/22 05:41:33;;;;;;;7.97;4.32;;;;;;;16.18;89.63;100406.88;10441742;28;20041;-72
2023/08/22 05:46:36;;;;;;;10.90;4.82;;;;;;;16.14;89.00;100414.22;10439856;28;20052;-71
2023/08/22 05:51:39;;;;;;;8.70;5.47;;;;;;;16.15;89.27;100415.03;10442233;28;20415;-72
2023/08/22 05:56:41;;;;;;;9.30;5.07;;;;;;;16.18;90.56;100414.38;10425603;28;20053;-72
2023/08/22 06:01:43;;;;;;;12.35;6.15;;;;;;;16.13;89.83;100414.50;10430129;28;20515;-71
2023/08/22 06:06:46;;;;;;;10.88;5.28;;;;;;;16.24;90.24;100413.88;10440548;28;20037;-72
2023/08/22 06:11:49;;;;;;;10.63;5.70;;;;;;;16.18;90.16;100403.31;10440716;28;20045;-71
2023/08/22 06:16:51;;;;;;;11.50;6.13;;;;;;;16.41;89.91;100406.72;10439278;28;20056;-71
2023/08/22 06:21:54;;;;;;;9.85;5.65;;;;;;;16.47;88.56;100403.44;10439806;28;20046;-72
2023/08/22 06:26:57;;;;;;;12.18;5.25;;;;;;;16.51;88.06;100411.94;10431756;28;20052;-71
2023/08/22 06:32:00;;;;;;;10.45;6.00;;;;;;;16.61;87.26;100399.69;10437861;28;20042;-70
2023/08/22 06:37:06;;;;;;;15.73;6.00;;;;;;;16.51;86.37;100401.69;10439788;28;20138;-72
2023/08/22 06:42:08;;;;;;;9.30;5.07;;;;;;;16.48;85.09;100399.53;10440232;28;20060;-72
2023/08/22 06:47:12;;;;;;;9.95;5.22;;;;;;;16.58;85.76;100406.72;10438707;28;20053;-72
2023/08/22 06:52:14;;;;;;;11.43;5.78;;;;;;;16.65;84.97;100412.56;10425837;28;20044;-72
2023/08/22 06:57:17;;;;;;;8.88;4.63;;;;;;;16.49;82.65;100409.50;10447793;28;20052;-72
2023/08/22 07:02:19;;;;;;;12.05;5.18;;;;;;;16.42;81.68;100417.47;10446446;28;20061;-72
2023/08/22 07:07:21;;;;;;;8.48;4.18;;;;;;;16.43;82.49;100419.09;10449652;28;20496;-72
2023/08/22 07:12:23;;;;;;;7.55;4.13;;;;;;;16.37;81.78;100419.59;10450214;28;20045;-71
2023/08/22 07:17:26;;;;;;;9.90;4.45;;;;;;;16.24;82.06;100413.06;10450743;28;20559;-71
2023/08/22 07:22:28;;;;;;;11.20;4.95;;;;;;;16.22;81.58;100415.34;10435034;28;20046;-71
2023/08/22 07:27:30;;;;;;;9.18;5.05;;;;;;;16.19;82.91;100407.69;10446240;28;20045;-72
2023/08/22 07:32:33;;;;;;;9.52;3.45;;;;;;;16.47;84.13;100417.31;10438238;28;20064;-72
2023/08/22 07:37:37;;;;;;;9.77;4.32;;;;;;;16.52;83.51;100399.72;10435166;28;20042;-73
2023/08/22 07:42:39;;;;;;;12.75;5.85;;;;;;;16.49;83.59;100408.69;10441743;28;20041;-73
2023/08/22 07:47:42;;;;;;;10.82;5.78;;;;;;;16.58;84.20;100396.44;10442119;28;20050;-74
2023/08/22 07:52:49;;;;;;;12.05;5.68;;;;;;;16.50;83.22;100396.47;10441159;28;20511;-75
2023/08/22 07:57:52;;;;;;;12.38;6.80;;;;;;;16.49;83.21;100400.38;10443889;28;20054;-75
2023/08/22 08:02:54;;;;;;;13.18;6.93;;;;;;;16.48;83.45;100407.84;10430573;28;20563;-73
2023/08/22 08:07:56;;;;;;;15.75;6.95;;;;;;;16.41;83.52;100404.75;10407400;28;20054;-75
2023/08/22 08:12:59;;;;;;;12.48;6.63;;;;;;;16.54;83.25;100397.44;10435682;28;20050;-75
2023/08/22 08:18:01;;;;;;;15.40;7.47;;;;;;;16.50;83.13;100388.97;10435640;28;20496;-75
2023/08/22 08:23:03;;;;;;;11.23;6.13;;;;;;;16.55;83.64;100391.56;10446903;28;20522;-75
2023/08/22 08:28:05;;;;;;;12.88;6.38;;;;;;;16.71;83.12;100393.88;10448750;28;20060;-75
2023/08/22 08:33:09;;;;;;;11.52;5.32;;;;;;;16.65;82.86;100389.59;10447436;28;20512;-75
2023/08/22 08:38:11;;;;;;;11.43;6.20;;;;;;;16.85;82.50;100381.47;10410054;28;20038;-75
2023/08/22 08:43:13;;;;;;;14.95;6.13;;;;;;;16.88;80.70;100388.28;10404702;28;20046;-75
2023/08/22 08:48:17;;;;;;;10.70;6.28;;;;;;;17.15;79.81;100390.66;10405619;28;20042;-75
2023/08/22 08:53:19;;;;;;;10.77;4.47;;;;;;;17.39;79.15;100381.75;10403227;28;20038;-75
2023/08/22 08:58:22;;;;;;;10.75;6.45;;;;;;;17.57;77.28;100379.72;10404025;28;20077;-75
2023/08/22 09:03:24;;;;;;;10.05;4.90;;;;;;;17.58;77.47;100367.47;10405519;28;20048;-75
2023/08/22 09:08:27;;;;;;;9.82;5.30;;;;;;;17.48;77.37;100365.88;10404950;28;20045;-75
2023/08/22 09:13:29;;;;;;;7.70;4.57;;;;;;;17.50;77.07;100373.88;10431040;28;20451;-75
2023/08/22 09:18:32;;;;;;;7.47;4.25;;;;;;;17.49;77.11;100384.16;10444756;28;20526;-74
2023/08/22 09:23:34;;;;;;;7.13;4.00;;;;;;;17.35;78.03;100382.75;10445978;28;20045;-75
2023/08/22 09:28:40;;;;;;;4.65;3.25;;;;;;;17.04;80.02;100381.09;10445736;28;20038;-75
2023/08/22 09:33:46;;;;;;;7.00;3.78;;;;;;;16.97;81.00;100377.97;10445067;28;20034;-75
2023/08/22 09:38:58;;;;;;;4.90;3.00;;;;;;;16.90;82.05;100369.38;10440756;28;20127;-75
2023/08/22 09:44:01;;;;;;;6.53;3.60;;;;;;;16.92;81.84;100375.41;10437451;28;20504;-75
2023/08/22 09:49:07;;;;;;;5.55;3.67;;;;;;;17.07;81.31;100363.78;10432344;28;20041;-74
2023/08/22 09:54:10;;;;;;;5.10;3.77;;;;;;;17.42;80.20;100363.63;10434967;28;20508;-74
2023/08/22 09:59:16;;;;;;;6.45;3.33;;;;;;;17.68;79.11;100366.28;10440103;28;20155;-75
2023/08/22 10:04:18;;;;;;;7.32;3.70;;;;;;;17.73;79.21;100366.13;10443666;28;20048;-74
2023/08/22 10:09:20;;;;;;;5.97;3.97;;;;;;;17.43;80.52;100362.50;10435213;28;20041;-77
2023/08/22 10:14:30;;;;;;;9.23;3.63;;;;;;;16.61;85.29;100363.69;10438146;28;20542;-76
2023/08/22 10:19:32;;;;;;;6.15;3.85;;;;;;;16.59;86.97;100375.09;10438001;28;20052;-76
2023/08/22 10:24:35;;;;;;;10.55;3.50;;;;;;;16.72;86.64;100365.84;10429240;28;20048;-76
2023/08/22 10:29:41;;;;;;;6.45;3.45;;;;;;;16.87;86.04;100370.03;10447215;28;20516;-76
2023/08/22 10:34:43;;;;;;;12.43;3.65;;;;;;;17.05;86.07;100379.13;10447731;28;20037;-73
2023/08/22 10:39:48;;;;;;;8.75;4.18;;;;;;;16.98;87.10;100370.47;10451697;28;20717;-74
2023/08/22 10:44:56;;;;;;;8.00;3.88;;;;;;;16.90;87.34;100376.88;10446821;28;20038;-73
2023/08/22 10:50:00;;;;;;;6.25;3.63;;;;;;;16.91;88.35;100384.84;10451237;28;20041;-73
2023/08/22 10:55:06;;;;;;;6.55;3.83;;;;;;;17.27;89.15;100376.09;10432939;28;20420;-73
2023/08/22 11:00:20;;;;;;;10.32;4.50;;;;;;;17.66;86.17;100369.38;10447110;28;20471;-73
2023/08/22 11:05:22;;;;;;;7.30;4.43;;;;;;;18.10;84.95;100375.50;10445391;28;20053;-72
2023/08/22 11:10:25;;;;;;;6.30;4.10;;;;;;;18.59;83.74;100373.78;10443280;28;20128;-73
2023/08/22 11:15:27;;;;;;;6.10;3.72;;;;;;;19.06;81.90;100367.09;10463249;28;20035;-73
2023/08/22 11:20:29;;;;;;;3.35;2.70;;;;;;;19.15;80.42;100367.81;10444104;28;20041;-72
2023/08/22 11:25:31;;;;;;;2.45;2.25;;;;;;;19.33;79.55;100374.78;10437176;28;20452;-73
2023/08/22 11:30:34;;;;;;;3.78;2.40;;;;;;;19.19;79.23;100377.09;10477035;28;20044;-74
2023/08/22 11:35:36;;;;;;;3.28;2.25;;;;;;;19.03;80.25;100373.34;10447720;28;20033;-75
2023/08/22 11:40:42;;;;;;;3.50;2.85;;;;;;;19.10;79.81;100380.00;10435385;28;20068;-76
2023/08/22 11:45:48;;;;;;;2.90;2.35;;;;;;;19.38;79.41;100374.56;10444354;28;20045;-78
2023/08/22 11:50:50;;;;;;;3.45;2.30;;;;;;;19.41;78.23;100384.19;10445645;28;20525;-78
2023/08/22 11:55:55;;;;;;;2.70;2.20;;;;;;;19.10;79.16;100388.34;10445410;28;20487;-78
2023/08/22 12:01:00;;;;;;;3.13;2.30;;;;;;;19.00;78.91;100391.53;10436642;28;20049;-78
2023/08/22 12:06:10;;;;;;;2.58;2.20;;;;;;;19.00;78.23;100388.75;10444397;28;20037;-76
2023/08/22 12:11:22;;;;;;;2.88;2.10;;;;;;;19.15;76.62;100390.06;10440661;28;20044;-75
2023/08/22 12:16:25;;;;;;;2.72;2.00;;;;;;;19.24;76.55;100388.78;10443632;28;20033;-73
2023/08/22 12:21:27;;;;;;;3.72;2.25;;;;;;;18.91;76.77;100388.84;10441769;28;20045;-75
2023/08/22 12:26:29;;;;;;;1.98;1.77;;;;;;;18.99;76.42;100392.69;10442801;28;20041;-75
2023/08/22 12:31:32;;;;;;;2.08;1.88;;;;;;;19.26;75.49;100385.66;10441891;28;20751;-75
2023/08/22 12:36:34;;;;;;;4.38;2.22;;;;;;;19.09;75.32;100383.09;10436370;28;20030;-75
2023/08/22 12:41:40;;;;;;;4.13;2.30;;;;;;;19.12;76.57;100385.22;10403701;28;20053;-82
2023/08/22 12:46:42;;;;;;;3.70;2.65;;;;;;;19.01;76.81;100384.00;10414494;28;20049;-80
2023/08/22 12:51:44;;;;;;;4.32;2.58;;;;;;;19.13;76.88;100382.06;10434002;28;20046;-82
2023/08/22 12:56:46;;;;;;;3.70;2.95;;;;;;;19.03;76.61;100382.50;10440641;28;20789;-81
2023/08/22 13:01:48;;;;;;;3.00;2.45;;;;;;;19.22;75.80;100385.56;10434996;28;20776;-85
2023/08/22 13:06:50;;;;;;;4.07;3.20;;;;;;;19.15;75.90;100390.06;10436546;28;20049;-89
2023/08/22 13:11:53;;;;;;;6.05;3.05;;;;;;;19.11;76.07;100383.59;10439788;28;20517;-83
2023/08/22 13:16:56;;;;;;;3.08;2.60;;;;;;;19.23;75.28;100380.81;10439844;28;20491;-84
2023/08/22 13:21:58;;;;;;;7.95;3.50;;;;;;;19.24;75.07;100385.19;10444173;28;20037;-82
2023/08/22 13:27:00;;;;;;;5.47;3.17;;;;;;;18.95;76.37;100389.78;10436397;28;20436;-82
2023/08/22 13:32:03;;;;;;;3.75;2.63;;;;;;;18.72;77.03;100382.19;10434817;28;20041;-83
2023/08/22 13:37:05;;;;;;;2.33;2.13;;;;;;;18.87;76.93;100384.31;10434921;28;20499;-85
2023/08/22 13:42:08;;;;;;;4.22;2.55;;;;;;;18.77;77.40;100387.53;10413788;28;20048;-85
2023/08/22 13:47:10;;;;;;;2.92;2.55;;;;;;;18.79;76.98;100386.03;10437660;28;20037;-73
2023/08/22 13:52:12;;;;;;;3.67;2.30;;;;;;;18.74;77.04;100380.69;10436636;28;20508;-72
2023/08/22 13:57:15;;;;;;;4.05;2.10;;;;;;;18.56;76.75;100382.78;10434579;28;20045;-71
2023/08/22 14:02:18;;;;;;;4.18;2.40;;;;;;;18.53;77.19;100385.44;10437023;28;20575;-72
2023/08/22 14:07:20;;;;;;;5.53;2.42;;;;;;;18.66;77.05;100378.81;10436462;28;20547;-72
2023/08/22 14:12:22;;;;;;;3.42;2.20;;;;;;;18.92;77.18;100387.72;10435272;28;20033;-72
2023/08/22 14:17:25;;;;;;;3.08;2.20;;;;;;;19.19;75.44;100385.44;10440948;28;20042;-72
2023/08/22 14:22:28;;;;;;;5.07;2.45;;;;;;;19.16;75.07;100388.91;10431051;28;20081;-73
2023/08/22 14:27:31;;;;;;;3.10;2.20;;;;;;;19.02;75.77;100392.00;10435754;28;20535;-73
2023/08/22 14:32:33;;;;;;;2.97;2.10;;;;;;;18.89;76.12;100393.13;10436239;28;20049;-72
2023/08/22 14:37:35;;;;;;;5.05;2.65;;;;;;;19.07;75.76;100399.31;10443397;28;20049;-72
2023/08/22 14:42:37;;;;;;;2.83;2.03;;;;;;;18.95;75.33;100392.56;10433434;28;20041;-73
2023/08/22 14:47:40;;;;;;;3.22;2.00;;;;;;;19.07;74.74;100394.56;10437417;28;20042;-72
2023/08/22 14:52:42;;;;;;;3.22;2.05;;;;;;;18.97;75.19;100390.25;10426117;28;20037;-72
2023/08/22 14:57:44;;;;;;;2.70;2.30;;;;;;;18.94;75.22;100384.59;10441243;28;20045;-72
2023/08/22 15:02:46;;;;;;;2.60;1.90;;;;;;;18.83;75.46;100386.16;10431851;28;20046;-72
2023/08/22 15:07:48;;;;;;;5.57;2.45;;;;;;;18.89;75.81;100379.22;10442183;28;20056;-72
2023/08/22 15:12:51;;;;;;;5.32;2.28;;;;;;;18.75;75.84;100381.50;10442334;28;20037;-72
2023/08/22 15:17:53;;;;;;;3.67;2.38;;;;;;;18.56;76.20;100374.44;10430313;28;20057;-72
2023/08/22 15:22:55;;;;;;;3.55;2.30;;;;;;;18.61;76.81;100379.00;10429461;28;20041;-72
2023/08/22 15:27:59;;;;;;;4.65;2.50;;;;;;;18.44;77.87;100370.81;10450138;28;20116;-72
2023/08/22 15:33:01;;;;;;;3.20;2.22;;;;;;;18.43;78.50;100371.97;10448097;28;20045;-72
2023/08/22 15:38:04;;;;;;;3.33;2.10;;;;;;;18.37;78.70;100377.72;10436656;28;20026;-72
2023/08/22 15:43:06;;;;;;;3.00;2.53;;;;;;;18.44;77.93;100374.41;10480302;28;20428;-72
2023/08/22 15:48:10;;;;;;;3.78;2.60;;;;;;;18.29;78.77;100373.06;10449475;28;20040;-72
2023/08/22 15:53:12;;;;;;;3.20;2.42;;;;;;;18.38;77.79;100375.75;10431712;28;20623;-73
2023/08/22 15:58:14;;;;;;;3.38;2.30;;;;;;;18.34;77.91;100377.59;10407195;28;20045;-73
2023/08/22 16:03:16;;;;;;;3.33;2.47;;;;;;;18.39;78.20;100374.59;10433687;28;20072;-80
2023/08/22 16:08:18;;;;;;;3.85;2.80;;;;;;;18.40;78.24;100370.69;10429165;28;20060;-72
2023/08/22 16:13:20;;;;;;;2.30;2.08;;;;;;;18.33;78.29;100362.88;10445129;28;20711;-73
2023/08/22 16:18:23;;;;;;;3.20;2.17;;;;;;;18.34;78.36;100361.72;10446150;28;20046;-73
2023/08/22 16:23:25;;;;;;;2.35;2.10;;;;;;;18.27;78.82;100361.47;10442660;28;20053;-72
2023/08/22 16:28:27;;;;;;;3.80;2.40;;;;;;;18.06;79.45;100361.50;10441202;28;20049;-74
2023/08/22 16:33:29;;;;;;;3.35;2.42;;;;;;;18.13;79.36;100360.94;10431672;28;20424;-74
2023/08/22 16:38:31;;;;;;;2.70;2.00;;;;;;;18.13;79.46;100355.38;10443509;28;20508;-73
2023/08/22 16:43:33;;;;;;;3.22;2.40;;;;;;;18.10;79.12;100355.25;10452058;28;20044;-74
2023/08/22 16:48:36;;;;;;;3.55;2.22;;;;;;;17.86;80.92;100344.78;10441989;28;20342;-75
2023/08/22 16:53:38;;;;;;;2.40;2.17;;;;;;;17.88;80.82;100348.88;10442688;28;20049;-75
2023/08/22 16:58:40;;;;;;;3.00;1.98;;;;;;;17.84;81.06;100341.53;10444368;28;20053;-76
2023/08/22 17:03:43;;;;;;;3.05;2.40;;;;;;;17.89;81.04;100350.50;10443749;28;20082;-79
2023/08/22 17:08:45;;;;;;;2.60;2.25;;;;;;;17.84;82.05;100345.13;10444162;28;20041;-80
2023/08/22 17:13:47;;;;;;;3.85;2.38;;;;;;;17.83;81.77;100339.91;10446144;28;20044;-79
2023/08/22 17:18:49;;;;;;;2.63;2.20;;;;;;;17.75;82.23;100345.19;10445255;28;20029;-90
2023/08/22 17:23:52;;;;;;;5.93;2.63;;;;;;;17.83;81.56;100345.47;10438972;28;20060;-88
2023/08/22 17:28:54;;;;;;;4.13;2.40;;;;;;;17.71;81.75;100347.03;10407670;28;20069;-91
2023/08/22 17:33:56;;;;;;;2.95;1.90;;;;;;;17.73;81.19;100350.28;10425112;28;20044;-88
2023/08/22 17:38:58;;;;;;;3.53;2.05;;;;;;;17.80;80.63;100348.94;10417022;28;20519;-90
2023/08/22 17:44:01;;;;;;;2.78;1.75;;;;;;;17.76;79.97;100352.38;10442681;28;20519;-88
2023/08/22 17:49:03;;;;;;;2.83;2.03;;;;;;;17.69;81.35;100343.75;10443836;28;20041;-89
2023/08/22 17:54:07;;;;;;;3.13;2.30;;;;;;;17.66;82.23;100344.41;10442227;28;20038;-88
2023/08/22 17:59:10;;;;;;;2.85;2.13;;;;;;;17.53;82.61;100348.25;10460754;28;20053;-89
2023/08/22 18:04:12;;;;;;;3.78;2.58;;;;;;;17.48;82.70;100345.66;10453415;28;20052;-88
2023/08/22 18:09:14;;;;;;;3.47;2.28;;;;;;;17.42;83.57;100353.34;10443738;28;20049;-83
2023/08/22 18:14:16;;;;;;;3.63;2.10;;;;;;;17.39;83.69;100351.25;10440200;28;20061;-84
2023/08/22 18:19:18;;;;;;;2.95;2.45;;;;;;;17.41;84.09;100362.81;10432964;28;20037;-83
2023/08/22 18:24:20;;;;;;;3.97;2.78;;;;;;;17.35;84.20;100363.31;10423357;28;20061;-84
2023/08/22 18:29:22;;;;;;;5.15;2.97;;;;;;;17.26;84.52;100368.94;10431546;28;20056;-82
2023/08/22 18:34:25;;;;;;;5.22;3.80;;;;;;;17.23;85.30;100363.25;10441149;28;20033;-80
2023/08/22 18:39:28;;;;;;;4.38;3.10;;;;;;;17.23;84.82;100360.47;10432469;28;20045;-78
2023/08/22 18:44:30;;;;;;;4.65;3.38;;;;;;;17.15;85.78;100357.38;10444150;28;20042;-78
2023/08/22 18:49:33;;;;;;;6.05;3.40;;;;;;;17.08;85.67;100361.81;10446441;28;20508;-79
2023/08/22 18:54:35;;;;;;;4.93;3.35;;;;;;;17.10;86.05;100365.06;10449570;28;20504;-77
2023/08/22 18:59:37;;;;;;;5.28;3.30;;;;;;;17.00;86.63;100359.88;10431540;28;20558;-78
2023/08/22 19:04:40;;;;;;;5.95;3.80;;;;;;;16.94;87.66;100353.69;10444759;28;20037;-82
2023/08/22 19:09:42;;;;;;;8.35;4.10;;;;;;;16.94;87.73;100356.47;10427035;28;20416;-77
2023/08/22 19:14:44;;;;;;;5.25;3.50;;;;;;;16.85;86.96;100352.94;10444993;28;20451;-81
2023/08/22 19:19:46;;;;;;;4.75;2.83;;;;;;;16.76;86.35;100349.34;10429385;28;20049;-80
2023/08/22 19:24:48;;;;;;;3.88;2.70;;;;;;;16.76;85.78;100346.59;10443105;28;20053;-76
2023/08/22 19:29:50;;;;;;;5.10;2.78;;;;;;;16.74;86.16;100346.91;10422776;28;20041;-76
2023/08/22 19:34:53;;;;;;;4.63;2.35;;;;;;;16.68;86.42;100344.66;10444179;28;20578;-76
2023/08/22 19:39:55;;;;;;;5.40;2.70;;;;;;;16.75;86.45;100340.22;10445360;28;20045;-81
2023/08/22 19:44:58;;;;;;;4.00;3.00;;;;;;;16.81;87.11;100340.84;10464657;28;20041;-80
2023/08/22 19:50:00;;;;;;;5.15;2.92;;;;;;;16.84;86.90;100326.38;10443821;28;20037;-78
2023/08/22 19:55:04;;;;;;;3.97;3.03;;;;;;;16.77;86.92;100321.31;10443745;28;20037;-78
2023/08/22 20:00:08;;;;;;;4.70;2.97;;;;;;;16.80;86.55;100315.09;10441499;28;20056;-78
2023/08/22 20:05:17;;;;;;;6.10;3.67;;;;;;;16.72;86.93;100313.19;10439403;28;20056;-80
2023/08/22 20:10:19;;;;;;;5.68;3.63;;;;;;;16.68;87.18;100317.75;10466135;28;20038;-80
2023/08/22 20:15:22;;;;;;;5.25;3.72;;;;;;;16.64;87.57;100316.75;10441517;28;20041;-76
2023/08/22 20:20:24;;;;;;;5.60;3.80;;;;;;;16.64;88.06;100318.69;10436641;28;20052;-75
2023/08/22 20:25:27;;;;;;;5.70;3.97;;;;;;;16.71;87.45;100303.25;10443162;28;20045;-74
2023/08/22 20:30:29;;;;;;;5.55;3.58;;;;;;;16.69;87.40;100304.72;10443747;28;20058;-73
2023/08/22 20:35:31;;;;;;;4.50;3.38;;;;;;;16.62;87.41;100298.81;10442899;28;20056;-78
2023/08/22 20:40:34;;;;;;;4.82;3.03;;;;;;;16.54;87.39;100301.31;10443015;28;20037;-79
2023/08/22 20:45:36;;;;;;;3.85;2.78;;;;;;;16.58;87.29;100295.91;10440025;28;20080;-76
2023/08/22 20:50:39;;;;;;;2.55;2.35;;;;;;;16.65;86.72;100306.47;10443637;28;20033;-77
2023/08/22 20:55:41;;;;;;;4.18;3.22;;;;;;;16.64;85.88;100299.31;10445349;28;20033;-75
2023/08/22 21:00:43;;;;;;;4.97;3.22;;;;;;;16.61;86.75;100298.00;10441249;28;20068;-75
2023/08/22 21:05:46;;;;;;;4.90;3.42;;;;;;;16.55;86.47;100289.06;10438966;28;20128;-77
2023/08/22 21:10:48;;;;;;;5.95;4.10;;;;;;;16.56;86.41;100279.63;10427010;28;20049;-77
2023/08/22 21:15:52;;;;;;;7.57;4.32;;;;;;;16.54;87.07;100283.88;10436614;28;20049;-73
2023/08/22 21:20:54;;;;;;;5.65;3.97;;;;;;;16.49;87.15;100281.28;10433533;28;20053;-74
2023/08/22 21:25:57;;;;;;;7.03;4.70;;;;;;;16.55;87.08;100274.41;10467242;28;20052;-73
2023/08/22 21:31:00;;;;;;;8.50;4.38;;;;;;;16.56;87.00;100282.41;10434165;28;20037;-73
2023/08/22 21:36:02;;;;;;;4.25;3.38;;;;;;;16.36;87.56;100273.97;10438595;28;20041;-73
2023/08/22 21:41:04;;;;;;;4.25;2.90;;;;;;;16.28;87.74;100278.38;10443564;28;20080;-73
2023/08/22 21:46:07;;;;;;;3.83;2.90;;;;;;;16.08;89.00;100282.63;10445640;28;20508;-73
2023/08/22 21:51:09;;;;;;;6.72;4.03;;;;;;;15.97;89.65;100275.81;10442132;28;20037;-73
2023/08/22 21:56:12;;;;;;;9.13;5.72;;;;;;;15.80;91.02;100267.50;10445227;28;20056;-73
2023/08/22 22:01:14;;;;;;;8.63;6.22;;;;;;;15.73;91.77;100272.69;10439025;28;20156;-73
2023/08/22 22:06:16;;;;;;;9.85;6.60;;;;;;;15.68;92.20;100271.72;10435185;28;20057;-73
2023/08/22 22:11:19;;;;;;;8.18;5.00;;;;;;;15.55;92.68;100278.19;10441874;28;20065;-73
2023/08/22 22:16:22;;;;;;;7.03;4.25;;;;;;;15.49;92.20;100270.38;10436033;28;20088;-73
2023/08/22 22:21:24;;;;;;;6.68;4.00;;;;;;;15.52;91.81;100265.00;10441297;28;20408;-73
2023/08/22 22:26:26;;;;;;;4.15;3.30;;;;;;;15.36;92.09;100270.19;10443008;28;20064;-73
2023/08/22 22:31:29;;;;;;;5.35;3.80;;;;;;;15.28;92.89;100254.41;10431538;28;20052;-72
2023/08/22 22:36:31;;;;;;;5.53;3.70;;;;;;;15.34;92.42;100250.34;10447226;28;20506;-73
2023/08/22 22:41:34;;;;;;;4.28;2.95;;;;;;;15.32;91.44;100249.84;10445863;28;20053;-73
2023/08/22 22:46:36;;;;;;;3.97;2.58;;;;;;;15.21;91.55;100253.22;10447560;28;20041;-73
2023/08/22 22:51:38;;;;;;;3.55;2.30;;;;;;;15.06;92.14;100246.19;10434339;28;20428;-72
2023/08/22 22:56:40;;;;;;;2.40;2.20;;;;;;;15.10;91.83;100244.44;10446148;28;20041;-73
2023/08/22 23:01:43;;;;;;;2.78;2.13;;;;;;;15.13;91.34;100251.28;10446842;28;20049;-73
2023/08/22 23:06:45;;;;;;;3.28;1.77;;;;;;;15.12;91.46;100246.88;10446357;28;20044;-73
2023/08/22 23:11:47;;;;;;;2.40;1.90;;;;;;;15.11;90.84;100248.84;10437225;28;20046;-74